createdAt,value
2019-01-17T14:25:48.556Z,22.1
2019-01-17T14:35:47.763Z,22.1
2019-01-17T14:45:47.016Z,22
2019-01-17T14:55:46.168Z,21.9
2019-01-17T15:05:45.375Z,21.9
2019-01-17T15:15:44.578Z,22.1
2019-01-17T15:25:43.833Z,22.1
2019-01-17T15:35:43.117Z,22.1
2019-01-17T15:45:42.404Z,22
2019-01-17T15:55:41.684Z,22
2019-01-17T16:05:40.970Z,21.9
2019-01-17T16:15:40.285Z,22
2019-01-17T16:25:39.471Z,22
2019-01-17T16:35:38.671Z,22
2019-01-17T16:45:37.882Z,22.3
2019-01-17T16:55:37.086Z,22.4
2019-01-17T17:05:36.298Z,22.4
2019-01-17T17:15:35.512Z,22.5
2019-01-17T17:25:34.708Z,22.6
2019-01-17T17:35:33.915Z,22.7
2019-01-17T17:45:33.127Z,22.5
2019-01-17T17:55:32.337Z,22.4
2019-01-17T18:05:31.571Z,22.4
2019-01-17T18:15:30.745Z,22.3
2019-01-17T18:25:29.977Z,22.2
2019-01-17T18:35:29.188Z,22.2
2019-01-17T18:45:28.375Z,22.1
2019-01-17T18:55:27.583Z,22.4
2019-01-17T19:05:26.796Z,22.4
2019-01-17T19:15:26.008Z,22.4
2019-01-17T19:25:25.212Z,22.3
2019-01-17T19:35:24.421Z,22.3
2019-01-17T19:45:23.667Z,22.3
2019-01-17T19:55:22.834Z,22.3
2019-01-17T20:05:22.069Z,22.3
2019-01-17T20:15:21.395Z,22.3
2019-01-17T20:25:20.455Z,22.3
2019-01-17T20:45:18.869Z,22.1
2019-01-17T20:55:18.077Z,22.4
2019-01-17T21:05:17.277Z,22.3
2019-01-17T21:25:15.685Z,22.1
2019-01-17T21:35:14.891Z,22.1
2019-01-17T21:45:14.098Z,22
2019-01-17T21:55:13.301Z,22.2
2019-01-17T22:05:12.507Z,22.2
2019-01-17T22:15:11.714Z,22.1
2019-01-17T22:25:10.914Z,22.2
2019-01-17T22:35:10.116Z,22.2
2019-01-17T22:45:09.321Z,22.1
2019-01-17T22:55:08.528Z,22.1
2019-01-17T23:05:07.730Z,22.2
2019-01-17T23:15:06.932Z,22.1
2019-01-17T23:25:06.138Z,22.1
2019-01-17T23:35:05.342Z,22.1
2019-01-17T23:45:04.548Z,22
2019-01-17T23:55:03.750Z,21.9
